sensor_id;sensor_type;location;lat;lon;timestamp;temperature;humidity
20147;DHT22;10234;50.856;15.716;2022-09-03T00:00:36;5.50;99.90
20147;DHT22;10234;50.856;15.716;2022-09-03T00:03:08;5.50;99.90
20147;DHT22;10234;50.856;15.716;2022-09-03T00:05:42;5.40;99.90
20147;DHT22;10234;50.856;15.716;2022-09-03T00:08:14;5.40;99.90
20147;DHT22;10234;50.856;15.716;2022-09-03T00:10:50;5.20;99.90
20147;DHT22;10234;50.856;15.716;2022-09-03T00:13:23;5.20;99.90
20147;DHT22;10234;50.856;15.716;2022-09-03T00:15:52;5.30;99.90
20147;DHT22;10234;50.856;15.716;2022-09-03T00:18:24;5.10;99.90
20147;DHT22;10234;50.856;15.716;2022-09-03T00:20:58;5.10;99.90
20147;DHT22;10234;50.856;15.716;2022-09-03T00:23:34;5.20;99.90
20147;DHT22;10234;50.856;15.716;2022-09-03T00:26:13;5.20;99.90
20147;DHT22;10234;50.856;15.716;2022-09-03T00:28:44;5.20;99.90
20147;DHT22;10234;50.856;15.716;2022-09-03T00:31:18;4.80;99.90
20147;DHT22;10234;50.856;15.716;2022-09-03T00:33:48;5.00;99.90
20147;DHT22;10234;50.856;15.716;2022-09-03T00:36:19;4.90;99.90
20147;DHT22;10234;50.856;15.716;2022-09-03T00:38:48;4.90;99.90
20147;DHT22;10234;50.856;15.716;2022-09-03T00:41:23;5.10;99.90
20147;DHT22;10234;50.856;15.716;2022-09-03T00:44:05;5.00;99.90
20147;DHT22;10234;50.856;15.716;2022-09-03T00:46:40;4.90;99.90
20147;DHT22;10234;50.856;15.716;2022-09-03T00:49:27;5.00;99.90
20147;DHT22;10234;50.856;15.716;2022-09-03T00:52:06;4.50;99.90
20147;DHT22;10234;50.856;15.716;2022-09-03T00:54:42;4.80;99.90
20147;DHT22;10234;50.856;15.716;2022-09-03T00:57:25;4.80;99.90
20147;DHT22;10234;50.856;15.716;2022-09-03T01:00:00;4.80;99.90
20147;DHT22;10234;50.856;15.716;2022-09-03T01:02:35;4.70;99.90
20147;DHT22;10234;50.856;15.716;2022-09-03T01:05:10;4.70;99.90
20147;DHT22;10234;50.856;15.716;2022-09-03T01:07:48;4.70;99.90
20147;DHT22;10234;50.856;15.716;2022-09-03T01:10:26;4.80;99.90
20147;DHT22;10234;50.856;15.716;2022-09-03T01:13:01;4.50;99.90
20147;DHT22;10234;50.856;15.716;2022-09-03T01:15:34;4.60;99.90
20147;DHT22;10234;50.856;15.716;2022-09-03T01:18:14;4.90;99.90
20147;DHT22;10234;50.856;15.716;2022-09-03T01:20:53;4.60;99.90
20147;DHT22;10234;50.856;15.716;2022-09-03T01:23:50;4.60;99.90
20147;DHT22;10234;50.856;15.716;2022-09-03T01:26:45;4.60;99.90
20147;DHT22;10234;50.856;15.716;2022-09-03T01:29:21;4.40;99.90
20147;DHT22;10234;50.856;15.716;2022-09-03T01:31:59;4.50;99.90
20147;DHT22;10234;50.856;15.716;2022-09-03T01:34:34;4.60;99.90
20147;DHT22;10234;50.856;15.716;2022-09-03T01:37:13;4.60;99.90
20147;DHT22;10234;50.856;15.716;2022-09-03T01:39:49;5.10;99.90
20147;DHT22;10234;50.856;15.716;2022-09-03T01:42:29;4.60;99.90
20147;DHT22;10234;50.856;15.716;2022-09-03T01:45:21;4.50;99.90
20147;DHT22;10234;50.856;15.716;2022-09-03T01:48:02;4.50;99.90
20147;DHT22;10234;50.856;15.716;2022-09-03T01:50:38;4.40;99.90
20147;DHT22;10234;50.856;15.716;2022-09-03T01:53:15;4.30;99.90
20147;DHT22;10234;50.856;15.716;2022-09-03T01:55:59;4.40;99.90
20147;DHT22;10234;50.856;15.716;2022-09-03T01:58:37;4.70;99.90
20147;DHT22;10234;50.856;15.716;2022-09-03T02:01:13;4.20;99.90
20147;DHT22;10234;50.856;15.716;2022-09-03T02:03:43;4.40;99.90
20147;DHT22;10234;50.856;15.716;2022-09-03T02:06:11;4.50;99.90
20147;DHT22;10234;50.856;15.716;2022-09-03T02:08:38;5.10;99.90
20147;DHT22;10234;50.856;15.716;2022-09-03T02:11:08;4.40;99.90
20147;DHT22;10234;50.856;15.716;2022-09-03T02:13:37;4.40;99.90
20147;DHT22;10234;50.856;15.716;2022-09-03T02:16:11;4.20;99.90
20147;DHT22;10234;50.856;15.716;2022-09-03T02:18:41;4.10;99.90
20147;DHT22;10234;50.856;15.716;2022-09-03T02:21:09;4.20;99.90
20147;DHT22;10234;50.856;15.716;2022-09-03T02:23:38;4.10;99.90
20147;DHT22;10234;50.856;15.716;2022-09-03T02:26:06;4.00;99.90
20147;DHT22;10234;50.856;15.716;2022-09-03T02:28:34;4.20;99.90
20147;DHT22;10234;50.856;15.716;2022-09-03T02:31:02;4.20;99.90
20147;DHT22;10234;50.856;15.716;2022-09-03T02:33:31;4.10;99.90
20147;DHT22;10234;50.856;15.716;2022-09-03T02:35:59;4.40;99.90
20147;DHT22;10234;50.856;15.716;2022-09-03T02:38:26;4.10;99.90
20147;DHT22;10234;50.856;15.716;2022-09-03T02:40:53;4.20;99.90
20147;DHT22;10234;50.856;15.716;2022-09-03T02:43:29;4.10;99.90
20147;DHT22;10234;50.856;15.716;2022-09-03T02:46:01;4.00;99.90
20147;DHT22;10234;50.856;15.716;2022-09-03T02:48:29;3.80;99.90
20147;DHT22;10234;50.856;15.716;2022-09-03T02:50:56;4.10;99.90
20147;DHT22;10234;50.856;15.716;2022-09-03T02:53:23;4.00;99.90
20147;DHT22;10234;50.856;15.716;2022-09-03T02:55:56;3.90;99.90
20147;DHT22;10234;50.856;15.716;2022-09-03T02:58:23;4.00;99.90
20147;DHT22;10234;50.856;15.716;2022-09-03T03:00:50;4.00;99.90
20147;DHT22;10234;50.856;15.716;2022-09-03T03:03:17;4.00;99.90
20147;DHT22;10234;50.856;15.716;2022-09-03T03:05:48;5.00;99.90
20147;DHT22;10234;50.856;15.716;2022-09-03T03:08:15;4.00;99.90
20147;DHT22;10234;50.856;15.716;2022-09-03T03:10:45;4.10;99.90
20147;DHT22;10234;50.856;15.716;2022-09-03T03:13:14;4.00;99.90
20147;DHT22;10234;50.856;15.716;2022-09-03T03:15:41;4.00;99.90
20147;DHT22;10234;50.856;15.716;2022-09-03T03:18:08;3.90;99.90
20147;DHT22;10234;50.856;15.716;2022-09-03T03:20:36;3.90;99.90
20147;DHT22;10234;50.856;15.716;2022-09-03T03:23:05;3.90;99.90
20147;DHT22;10234;50.856;15.716;2022-09-03T03:25:32;3.90;99.90
20147;DHT22;10234;50.856;15.716;2022-09-03T03:27:59;3.90;99.90
20147;DHT22;10234;50.856;15.716;2022-09-03T03:30:26;3.80;99.90
20147;DHT22;10234;50.856;15.716;2022-09-03T03:32:54;4.20;99.90
20147;DHT22;10234;50.856;15.716;2022-09-03T03:35:21;4.00;99.90
20147;DHT22;10234;50.856;15.716;2022-09-03T03:37:48;4.00;99.90
20147;DHT22;10234;50.856;15.716;2022-09-03T03:40:16;4.00;99.90
20147;DHT22;10234;50.856;15.716;2022-09-03T03:42:44;4.00;99.90
20147;DHT22;10234;50.856;15.716;2022-09-03T03:45:11;4.00;99.90
20147;DHT22;10234;50.856;15.716;2022-09-03T03:50:06;4.10;99.90
20147;DHT22;10234;50.856;15.716;2022-09-03T03:52:33;4.10;99.90
20147;DHT22;10234;50.856;15.716;2022-09-03T03:55:00;4.00;99.90
20147;DHT22;10234;50.856;15.716;2022-09-03T03:57:29;4.20;99.90
20147;DHT22;10234;50.856;15.716;2022-09-03T03:59:56;4.10;99.90
20147;DHT22;10234;50.856;15.716;2022-09-03T04:02:23;4.10;99.90
20147;DHT22;10234;50.856;15.716;2022-09-03T04:04:50;4.20;99.90
20147;DHT22;10234;50.856;15.716;2022-09-03T04:07:17;4.10;99.90
20147;DHT22;10234;50.856;15.716;2022-09-03T04:09:43;4.00;99.90
20147;DHT22;10234;50.856;15.716;2022-09-03T04:12:12;3.90;99.90
20147;DHT22;10234;50.856;15.716;2022-09-03T04:14:41;3.80;99.90
20147;DHT22;10234;50.856;15.716;2022-09-03T04:17:07;4.00;99.90
20147;DHT22;10234;50.856;15.716;2022-09-03T04:19:34;3.90;99.90
20147;DHT22;10234;50.856;15.716;2022-09-03T04:22:02;4.00;99.90
20147;DHT22;10234;50.856;15.716;2022-09-03T04:24:29;3.90;99.90
20147;DHT22;10234;50.856;15.716;2022-09-03T04:26:56;3.70;99.90
20147;DHT22;10234;50.856;15.716;2022-09-03T04:29:23;3.80;99.90
20147;DHT22;10234;50.856;15.716;2022-09-03T04:31:51;3.80;99.90
20147;DHT22;10234;50.856;15.716;2022-09-03T04:37:03;3.80;99.90
20147;DHT22;10234;50.856;15.716;2022-09-03T04:39:29;3.90;99.90
20147;DHT22;10234;50.856;15.716;2022-09-03T04:41:56;4.10;99.90
20147;DHT22;10234;50.856;15.716;2022-09-03T04:44:23;3.90;99.90
20147;DHT22;10234;50.856;15.716;2022-09-03T04:46:51;4.10;99.90
20147;DHT22;10234;50.856;15.716;2022-09-03T04:49:18;4.00;99.90
20147;DHT22;10234;50.856;15.716;2022-09-03T04:51:45;4.10;99.90
20147;DHT22;10234;50.856;15.716;2022-09-03T04:54:12;4.10;99.90
20147;DHT22;10234;50.856;15.716;2022-09-03T04:56:38;4.30;99.90
20147;DHT22;10234;50.856;15.716;2022-09-03T04:59:07;4.50;99.90
20147;DHT22;10234;50.856;15.716;2022-09-03T05:01:36;4.60;99.90
20147;DHT22;10234;50.856;15.716;2022-09-03T05:04:05;4.80;99.90
20147;DHT22;10234;50.856;15.716;2022-09-03T05:06:33;4.90;99.90
20147;DHT22;10234;50.856;15.716;2022-09-03T05:09:00;5.10;99.90
20147;DHT22;10234;50.856;15.716;2022-09-03T05:11:28;5.30;99.90
20147;DHT22;10234;50.856;15.716;2022-09-03T05:13:56;5.50;99.90
20147;DHT22;10234;50.856;15.716;2022-09-03T05:16:25;5.70;99.90
20147;DHT22;10234;50.856;15.716;2022-09-03T05:18:55;6.10;99.90
20147;DHT22;10234;50.856;15.716;2022-09-03T05:21:25;6.10;99.90
20147;DHT22;10234;50.856;15.716;2022-09-03T05:23:53;6.30;99.90
20147;DHT22;10234;50.856;15.716;2022-09-03T05:26:21;6.50;99.90
20147;DHT22;10234;50.856;15.716;2022-09-03T05:28:52;6.70;99.90
20147;DHT22;10234;50.856;15.716;2022-09-03T05:31:20;7.40;99.90
20147;DHT22;10234;50.856;15.716;2022-09-03T05:33:49;7.80;99.90
20147;DHT22;10234;50.856;15.716;2022-09-03T05:36:17;7.70;99.90
20147;DHT22;10234;50.856;15.716;2022-09-03T05:38:46;8.30;99.90
20147;DHT22;10234;50.856;15.716;2022-09-03T05:41:14;10.40;99.90
20147;DHT22;10234;50.856;15.716;2022-09-03T05:43:41;10.80;99.90
20147;DHT22;10234;50.856;15.716;2022-09-03T05:46:10;13.50;99.90
20147;DHT22;10234;50.856;15.716;2022-09-03T05:48:39;14.50;99.90
20147;DHT22;10234;50.856;15.716;2022-09-03T05:51:08;15.60;99.90
20147;DHT22;10234;50.856;15.716;2022-09-03T05:53:36;16.50;99.90
20147;DHT22;10234;50.856;15.716;2022-09-03T05:56:07;16.10;99.90
20147;DHT22;10234;50.856;15.716;2022-09-03T05:58:36;18.00;99.90
20147;DHT22;10234;50.856;15.716;2022-09-03T06:01:09;18.80;99.90
20147;DHT22;10234;50.856;15.716;2022-09-03T06:03:37;18.40;99.90
20147;DHT22;10234;50.856;15.716;2022-09-03T06:06:04;18.90;99.90
20147;DHT22;10234;50.856;15.716;2022-09-03T06:08:31;20.00;99.90
20147;DHT22;10234;50.856;15.716;2022-09-03T06:10:59;20.30;98.00
20147;DHT22;10234;50.856;15.716;2022-09-03T06:13:27;19.40;96.80
20147;DHT22;10234;50.856;15.716;2022-09-03T06:15:55;19.80;99.00
20147;DHT22;10234;50.856;15.716;2022-09-03T06:18:22;20.00;96.00
20147;DHT22;10234;50.856;15.716;2022-09-03T06:20:53;20.90;93.10
20147;DHT22;10234;50.856;15.716;2022-09-03T06:23:21;20.70;91.90
20147;DHT22;10234;50.856;15.716;2022-09-03T06:25:57;21.70;91.90
20147;DHT22;10234;50.856;15.716;2022-09-03T06:28:26;22.70;85.60
20147;DHT22;10234;50.856;15.716;2022-09-03T06:30:56;22.90;81.10
20147;DHT22;10234;50.856;15.716;2022-09-03T06:33:23;22.80;80.10
20147;DHT22;10234;50.856;15.716;2022-09-03T06:35:52;24.20;76.40
20147;DHT22;10234;50.856;15.716;2022-09-03T06:38:22;24.70;70.10
20147;DHT22;10234;50.856;15.716;2022-09-03T06:40:51;24.40;74.40
20147;DHT22;10234;50.856;15.716;2022-09-03T06:43:18;24.90;69.90
20147;DHT22;10234;50.856;15.716;2022-09-03T06:45:53;25.10;70.60
20147;DHT22;10234;50.856;15.716;2022-09-03T06:48:20;25.00;69.30
20147;DHT22;10234;50.856;15.716;2022-09-03T06:50:55;24.40;69.30
20147;DHT22;10234;50.856;15.716;2022-09-03T06:53:23;23.70;68.30
20147;DHT22;10234;50.856;15.716;2022-09-03T06:55:54;23.00;71.20
20147;DHT22;10234;50.856;15.716;2022-09-03T06:58:21;22.30;74.10
20147;DHT22;10234;50.856;15.716;2022-09-03T07:00:49;22.20;77.40
20147;DHT22;10234;50.856;15.716;2022-09-03T07:03:18;23.20;78.10
20147;DHT22;10234;50.856;15.716;2022-09-03T07:05:45;24.20;75.90
20147;DHT22;10234;50.856;15.716;2022-09-03T07:08:12;25.50;70.10
20147;DHT22;10234;50.856;15.716;2022-09-03T07:10:39;26.40;68.00
20147;DHT22;10234;50.856;15.716;2022-09-03T07:13:08;27.30;63.00
20147;DHT22;10234;50.856;15.716;2022-09-03T07:15:35;27.00;60.50
20147;DHT22;10234;50.856;15.716;2022-09-03T07:18:01;26.20;63.20
20147;DHT22;10234;50.856;15.716;2022-09-03T07:20:29;26.30;64.90
20147;DHT22;10234;50.856;15.716;2022-09-03T07:22:56;27.20;62.80
20147;DHT22;10234;50.856;15.716;2022-09-03T07:25:23;28.60;59.60
20147;DHT22;10234;50.856;15.716;2022-09-03T07:27:50;29.60;57.60
20147;DHT22;10234;50.856;15.716;2022-09-03T07:30:17;29.10;57.70
20147;DHT22;10234;50.856;15.716;2022-09-03T07:32:45;28.50;57.10
20147;DHT22;10234;50.856;15.716;2022-09-03T07:35:15;27.30;57.40
20147;DHT22;10234;50.856;15.716;2022-09-03T07:37:44;26.20;59.50
20147;DHT22;10234;50.856;15.716;2022-09-03T07:40:11;25.90;61.20
20147;DHT22;10234;50.856;15.716;2022-09-03T07:42:38;26.30;64.20
20147;DHT22;10234;50.856;15.716;2022-09-03T07:45:06;26.80;62.20
20147;DHT22;10234;50.856;15.716;2022-09-03T07:47:35;27.80;63.40
20147;DHT22;10234;50.856;15.716;2022-09-03T07:50:02;29.00;58.50
20147;DHT22;10234;50.856;15.716;2022-09-03T07:52:29;30.20;57.30
20147;DHT22;10234;50.856;15.716;2022-09-03T07:54:57;30.90;55.20
20147;DHT22;10234;50.856;15.716;2022-09-03T07:57:24;31.40;55.10
20147;DHT22;10234;50.856;15.716;2022-09-03T07:59:51;32.10;52.80
20147;DHT22;10234;50.856;15.716;2022-09-03T08:02:18;32.40;52.80
20147;DHT22;10234;50.856;15.716;2022-09-03T08:04:45;33.10;49.70
20147;DHT22;10234;50.856;15.716;2022-09-03T08:07:11;32.80;48.40
20147;DHT22;10234;50.856;15.716;2022-09-03T08:09:38;33.20;47.00
20147;DHT22;10234;50.856;15.716;2022-09-03T08:12:07;33.50;49.20
20147;DHT22;10234;50.856;15.716;2022-09-03T08:14:34;34.00;47.80
20147;DHT22;10234;50.856;15.716;2022-09-03T08:17:00;33.80;48.10
20147;DHT22;10234;50.856;15.716;2022-09-03T08:19:27;34.10;47.00
20147;DHT22;10234;50.856;15.716;2022-09-03T08:21:54;34.60;46.70
20147;DHT22;10234;50.856;15.716;2022-09-03T08:24:21;34.90;45.80
20147;DHT22;10234;50.856;15.716;2022-09-03T08:26:50;34.90;45.10
20147;DHT22;10234;50.856;15.716;2022-09-03T08:29:18;35.00;45.00
20147;DHT22;10234;50.856;15.716;2022-09-03T08:31:45;35.00;44.00
20147;DHT22;10234;50.856;15.716;2022-09-03T08:34:12;35.10;43.60
20147;DHT22;10234;50.856;15.716;2022-09-03T08:36:41;34.20;44.70
20147;DHT22;10234;50.856;15.716;2022-09-03T08:39:10;33.80;46.00
20147;DHT22;10234;50.856;15.716;2022-09-03T08:41:47;34.30;47.50
20147;DHT22;10234;50.856;15.716;2022-09-03T08:44:24;35.00;52.80
20147;DHT22;10234;50.856;15.716;2022-09-03T08:46:55;34.50;45.70
20147;DHT22;10234;50.856;15.716;2022-09-03T08:49:27;33.80;45.90
20147;DHT22;10234;50.856;15.716;2022-09-03T08:52:00;33.70;45.30
20147;DHT22;10234;50.856;15.716;2022-09-03T08:54:30;31.90;45.50
20147;DHT22;10234;50.856;15.716;2022-09-03T08:57:00;30.10;47.10
20147;DHT22;10234;50.856;15.716;2022-09-03T08:59:29;28.50;49.90
20147;DHT22;10234;50.856;15.716;2022-09-03T09:02:03;27.90;51.20
20147;DHT22;10234;50.856;15.716;2022-09-03T09:04:47;28.00;51.20
20147;DHT22;10234;50.856;15.716;2022-09-03T09:07:22;27.80;51.60
20147;DHT22;10234;50.856;15.716;2022-09-03T09:09:59;28.20;52.10
20147;DHT22;10234;50.856;15.716;2022-09-03T09:12:36;27.90;51.50
20147;DHT22;10234;50.856;15.716;2022-09-03T09:15:10;26.80;53.00
20147;DHT22;10234;50.856;15.716;2022-09-03T09:17:50;27.50;53.10
20147;DHT22;10234;50.856;15.716;2022-09-03T09:20:28;27.70;52.20
20147;DHT22;10234;50.856;15.716;2022-09-03T09:23:01;28.30;52.80
20147;DHT22;10234;50.856;15.716;2022-09-03T09:25:29;29.60;51.20
20147;DHT22;10234;50.856;15.716;2022-09-03T09:27:59;31.20;49.70
20147;DHT22;10234;50.856;15.716;2022-09-03T09:30:28;31.00;57.30
20147;DHT22;10234;50.856;15.716;2022-09-03T09:32:55;30.90;47.20
20147;DHT22;10234;50.856;15.716;2022-09-03T09:35:22;30.50;49.40
20147;DHT22;10234;50.856;15.716;2022-09-03T09:37:51;30.10;49.40
20147;DHT22;10234;50.856;15.716;2022-09-03T09:40:29;29.20;49.90
20147;DHT22;10234;50.856;15.716;2022-09-03T09:43:04;28.20;50.70
20147;DHT22;10234;50.856;15.716;2022-09-03T09:45:32;27.20;52.10
20147;DHT22;10234;50.856;15.716;2022-09-03T09:48:01;26.40;52.70
20147;DHT22;10234;50.856;15.716;2022-09-03T09:50:28;26.20;56.60
20147;DHT22;10234;50.856;15.716;2022-09-03T09:53:02;28.00;54.40
20147;DHT22;10234;50.856;15.716;2022-09-03T09:55:33;30.30;50.10
20147;DHT22;10234;50.856;15.716;2022-09-03T09:58:05;32.00;47.80
20147;DHT22;10234;50.856;15.716;2022-09-03T10:00:35;33.40;47.40
20147;DHT22;10234;50.856;15.716;2022-09-03T10:03:08;34.10;45.60
20147;DHT22;10234;50.856;15.716;2022-09-03T10:05:38;34.10;46.30
20147;DHT22;10234;50.856;15.716;2022-09-03T10:08:07;33.60;46.60
20147;DHT22;10234;50.856;15.716;2022-09-03T10:10:45;33.80;45.90
20147;DHT22;10234;50.856;15.716;2022-09-03T10:13:17;33.30;42.90
20147;DHT22;10234;50.856;15.716;2022-09-03T10:15:50;32.80;42.80
20147;DHT22;10234;50.856;15.716;2022-09-03T10:18:37;32.60;43.50
20147;DHT22;10234;50.856;15.716;2022-09-03T10:21:09;31.70;55.20
20147;DHT22;10234;50.856;15.716;2022-09-03T10:23:49;31.90;44.20
20147;DHT22;10234;50.856;15.716;2022-09-03T10:26:20;31.50;44.90
20147;DHT22;10234;50.856;15.716;2022-09-03T10:28:59;31.00;43.90
20147;DHT22;10234;50.856;15.716;2022-09-03T10:31:40;31.50;44.70
20147;DHT22;10234;50.856;15.716;2022-09-03T10:34:15;32.20;43.60
20147;DHT22;10234;50.856;15.716;2022-09-03T10:36:48;32.50;42.90
20147;DHT22;10234;50.856;15.716;2022-09-03T10:39:22;32.40;41.60
20147;DHT22;10234;50.856;15.716;2022-09-03T10:42:02;32.30;42.30
20147;DHT22;10234;50.856;15.716;2022-09-03T10:47:42;31.70;45.60
20147;DHT22;10234;50.856;15.716;2022-09-03T10:50:14;31.50;47.80
20147;DHT22;10234;50.856;15.716;2022-09-03T10:52:58;31.80;46.50
20147;DHT22;10234;50.856;15.716;2022-09-03T10:55:39;31.80;45.70
20147;DHT22;10234;50.856;15.716;2022-09-03T10:58:22;32.10;42.60
20147;DHT22;10234;50.856;15.716;2022-09-03T11:00:53;31.90;46.50
20147;DHT22;10234;50.856;15.716;2022-09-03T11:03:42;32.20;57.00
20147;DHT22;10234;50.856;15.716;2022-09-03T11:06:13;32.10;45.90
20147;DHT22;10234;50.856;15.716;2022-09-03T11:08:46;31.90;46.30
20147;DHT22;10234;50.856;15.716;2022-09-03T11:11:16;31.50;47.40
20147;DHT22;10234;50.856;15.716;2022-09-03T11:13:50;30.90;47.50
20147;DHT22;10234;50.856;15.716;2022-09-03T11:16:22;30.20;48.70
20147;DHT22;10234;50.856;15.716;2022-09-03T11:18:54;29.60;49.10
20147;DHT22;10234;50.856;15.716;2022-09-03T11:21:25;29.20;50.90
20147;DHT22;10234;50.856;15.716;2022-09-03T11:24:04;28.60;51.80
20147;DHT22;10234;50.856;15.716;2022-09-03T11:26:33;28.90;53.40
20147;DHT22;10234;50.856;15.716;2022-09-03T11:29:05;26.70;53.60
20147;DHT22;10234;50.856;15.716;2022-09-03T11:31:44;25.30;56.00
20147;DHT22;10234;50.856;15.716;2022-09-03T11:34:24;24.60;57.80
20147;DHT22;10234;50.856;15.716;2022-09-03T11:37:04;24.20;58.30
20147;DHT22;10234;50.856;15.716;2022-09-03T11:39:34;24.00;59.30
20147;DHT22;10234;50.856;15.716;2022-09-03T11:42:03;23.90;59.50
20147;DHT22;10234;50.856;15.716;2022-09-03T11:44:36;23.70;60.20
20147;DHT22;10234;50.856;15.716;2022-09-03T11:47:14;23.60;60.60
20147;DHT22;10234;50.856;15.716;2022-09-03T11:49:48;22.90;81.70
20147;DHT22;10234;50.856;15.716;2022-09-03T11:52:25;23.10;61.70
20147;DHT22;10234;50.856;15.716;2022-09-03T11:57:24;22.70;61.90
20147;DHT22;10234;50.856;15.716;2022-09-03T11:59:53;22.30;62.50
20147;DHT22;10234;50.856;15.716;2022-09-03T12:02:26;22.10;62.50
20147;DHT22;10234;50.856;15.716;2022-09-03T12:05:06;22.10;64.40
20147;DHT22;10234;50.856;15.716;2022-09-03T12:07:52;21.90;63.70
20147;DHT22;10234;50.856;15.716;2022-09-03T12:10:30;21.90;64.30
20147;DHT22;10234;50.856;15.716;2022-09-03T12:13:16;21.40;63.70
20147;DHT22;10234;50.856;15.716;2022-09-03T12:16:22;21.20;64.60
20147;DHT22;10234;50.856;15.716;2022-09-03T12:18:53;21.00;65.20
20147;DHT22;10234;50.856;15.716;2022-09-03T12:21:24;20.90;65.80
20147;DHT22;10234;50.856;15.716;2022-09-03T12:23:52;20.90;66.50
20147;DHT22;10234;50.856;15.716;2022-09-03T12:26:20;20.80;88.80
20147;DHT22;10234;50.856;15.716;2022-09-03T12:28:50;20.70;66.90
20147;DHT22;10234;50.856;15.716;2022-09-03T12:31:19;20.60;67.00
20147;DHT22;10234;50.856;15.716;2022-09-03T12:33:48;20.50;67.50
20147;DHT22;10234;50.856;15.716;2022-09-03T12:36:16;20.30;66.90
20147;DHT22;10234;50.856;15.716;2022-09-03T12:38:44;20.20;68.50
20147;DHT22;10234;50.856;15.716;2022-09-03T12:41:26;20.30;68.40
20147;DHT22;10234;50.856;15.716;2022-09-03T12:43:54;20.40;70.00
20147;DHT22;10234;50.856;15.716;2022-09-03T12:46:23;20.40;87.40
20147;DHT22;10234;50.856;15.716;2022-09-03T12:48:55;20.30;68.80
20147;DHT22;10234;50.856;15.716;2022-09-03T12:51:30;20.20;68.80
20147;DHT22;10234;50.856;15.716;2022-09-03T12:53:58;20.20;69.50
20147;DHT22;10234;50.856;15.716;2022-09-03T12:56:27;20.20;90.30
20147;DHT22;10234;50.856;15.716;2022-09-03T12:59:00;20.50;71.50
20147;DHT22;10234;50.856;15.716;2022-09-03T13:01:32;20.10;88.30
20147;DHT22;10234;50.856;15.716;2022-09-03T13:04:03;20.50;70.40
20147;DHT22;10234;50.856;15.716;2022-09-03T13:06:39;20.60;70.70
20147;DHT22;10234;50.856;15.716;2022-09-03T13:09:09;20.50;69.00
20147;DHT22;10234;50.856;15.716;2022-09-03T13:11:36;20.40;69.70
20147;DHT22;10234;50.856;15.716;2022-09-03T13:14:05;20.20;69.10
20147;DHT22;10234;50.856;15.716;2022-09-03T13:17:00;20.00;70.20
20147;DHT22;10234;50.856;15.716;2022-09-03T13:19:37;19.90;71.00
20147;DHT22;10234;50.856;15.716;2022-09-03T13:22:13;19.70;71.80
20147;DHT22;10234;50.856;15.716;2022-09-03T13:24:58;19.50;73.70
20147;DHT22;10234;50.856;15.716;2022-09-03T13:27:31;19.40;73.00
20147;DHT22;10234;50.856;15.716;2022-09-03T13:30:07;19.40;73.90
20147;DHT22;10234;50.856;15.716;2022-09-03T13:32:43;19.50;75.60
20147;DHT22;10234;50.856;15.716;2022-09-03T13:35:21;19.60;76.40
20147;DHT22;10234;50.856;15.716;2022-09-03T13:37:54;19.60;75.60
20147;DHT22;10234;50.856;15.716;2022-09-03T13:40:31;19.60;73.10
20147;DHT22;10234;50.856;15.716;2022-09-03T13:43:03;19.60;74.60
20147;DHT22;10234;50.856;15.716;2022-09-03T13:45:36;19.50;74.00
20147;DHT22;10234;50.856;15.716;2022-09-03T13:48:10;19.30;74.60
20147;DHT22;10234;50.856;15.716;2022-09-03T13:51:05;19.20;75.40
20147;DHT22;10234;50.856;15.716;2022-09-03T13:53:47;19.10;76.90
20147;DHT22;10234;50.856;15.716;2022-09-03T13:56:20;19.10;76.70
20147;DHT22;10234;50.856;15.716;2022-09-03T13:58:54;19.10;77.60
20147;DHT22;10234;50.856;15.716;2022-09-03T14:01:25;19.10;78.60
20147;DHT22;10234;50.856;15.716;2022-09-03T14:03:56;19.10;78.00
20147;DHT22;10234;50.856;15.716;2022-09-03T14:06:39;19.00;79.80
20147;DHT22;10234;50.856;15.716;2022-09-03T14:09:13;19.10;80.60
20147;DHT22;10234;50.856;15.716;2022-09-03T14:11:51;19.00;82.70
20147;DHT22;10234;50.856;15.716;2022-09-03T14:14:33;19.10;93.50
20147;DHT22;10234;50.856;15.716;2022-09-03T14:17:09;18.90;81.40
20147;DHT22;10234;50.856;15.716;2022-09-03T14:19:45;19.10;82.20
20147;DHT22;10234;50.856;15.716;2022-09-03T14:22:16;19.10;80.90
20147;DHT22;10234;50.856;15.716;2022-09-03T14:24:48;19.10;82.10
20147;DHT22;10234;50.856;15.716;2022-09-03T14:27:24;19.00;84.20
20147;DHT22;10234;50.856;15.716;2022-09-03T14:29:57;19.00;84.30
20147;DHT22;10234;50.856;15.716;2022-09-03T14:32:29;19.00;95.00
20147;DHT22;10234;50.856;15.716;2022-09-03T14:35:17;18.90;84.50
20147;DHT22;10234;50.856;15.716;2022-09-03T14:40:46;19.00;86.20
20147;DHT22;10234;50.856;15.716;2022-09-03T14:43:42;19.00;90.00
20147;DHT22;10234;50.856;15.716;2022-09-03T14:46:18;19.00;88.70
20147;DHT22;10234;50.856;15.716;2022-09-03T14:49:10;19.00;90.40
20147;DHT22;10234;50.856;15.716;2022-09-03T14:51:53;19.00;90.40
20147;DHT22;10234;50.856;15.716;2022-09-03T14:54:47;19.10;90.70
20147;DHT22;10234;50.856;15.716;2022-09-03T14:57:41;19.30;90.50
20147;DHT22;10234;50.856;15.716;2022-09-03T15:00:15;19.40;91.80
20147;DHT22;10234;50.856;15.716;2022-09-03T15:03:12;19.40;90.30
20147;DHT22;10234;50.856;15.716;2022-09-03T15:05:50;19.40;90.90
20147;DHT22;10234;50.856;15.716;2022-09-03T15:08:36;19.40;91.60
20147;DHT22;10234;50.856;15.716;2022-09-03T15:11:14;19.30;91.00
20147;DHT22;10234;50.856;15.716;2022-09-03T15:13:46;19.20;99.20
20147;DHT22;10234;50.856;15.716;2022-09-03T15:16:27;19.10;91.90
20147;DHT22;10234;50.856;15.716;2022-09-03T15:19:08;19.00;91.60
20147;DHT22;10234;50.856;15.716;2022-09-03T15:21:46;18.80;92.90
20147;DHT22;10234;50.856;15.716;2022-09-03T15:24:25;18.80;93.50
20147;DHT22;10234;50.856;15.716;2022-09-03T15:27:02;18.60;94.10
20147;DHT22;10234;50.856;15.716;2022-09-03T15:29:48;18.50;95.90
20147;DHT22;10234;50.856;15.716;2022-09-03T15:32:28;18.50;95.90
20147;DHT22;10234;50.856;15.716;2022-09-03T15:35:07;18.40;96.30
20147;DHT22;10234;50.856;15.716;2022-09-03T15:37:43;18.30;97.30
20147;DHT22;10234;50.856;15.716;2022-09-03T15:40:22;18.30;97.30
20147;DHT22;10234;50.856;15.716;2022-09-03T15:42:52;18.30;96.40
20147;DHT22;10234;50.856;15.716;2022-09-03T15:45:31;18.20;97.70
20147;DHT22;10234;50.856;15.716;2022-09-03T15:48:18;18.30;98.50
20147;DHT22;10234;50.856;15.716;2022-09-03T15:50:53;18.20;98.00
20147;DHT22;10234;50.856;15.716;2022-09-03T15:53:29;18.10;97.80
20147;DHT22;10234;50.856;15.716;2022-09-03T15:56:09;18.20;98.70
20147;DHT22;10234;50.856;15.716;2022-09-03T15:58:44;18.10;99.90
20147;DHT22;10234;50.856;15.716;2022-09-03T16:04:09;18.00;99.90
20147;DHT22;10234;50.856;15.716;2022-09-03T16:06:46;17.90;99.90
20147;DHT22;10234;50.856;15.716;2022-09-03T16:09:28;17.90;99.90